sensor_id;sensor_type;location;lat;lon;timestamp;pressure;altitude;pressure_sealevel;temperature;humidity
50867;BME280;36839;51.946;21.002;2023-04-08T00:01:43;100660.30;;;3.94;100.00
50867;BME280;36839;51.946;21.002;2023-04-08T00:04:09;100663.06;;;3.91;100.00
50867;BME280;36839;51.946;21.002;2023-04-08T00:06:39;100665.84;;;3.90;100.00
50867;BME280;36839;51.946;21.002;2023-04-08T00:09:05;100667.95;;;3.89;100.00
50867;BME280;36839;51.946;21.002;2023-04-08T00:11:32;100669.27;;;3.87;100.00
50867;BME280;36839;51.946;21.002;2023-04-08T00:13:59;100669.56;;;3.83;100.00
50867;BME280;36839;51.946;21.002;2023-04-08T00:16:27;100667.71;;;3.78;100.00
50867;BME280;36839;51.946;21.002;2023-04-08T00:18:53;100665.55;;;3.73;100.00
50867;BME280;36839;51.946;21.002;2023-04-08T00:21:22;100666.94;;;3.67;100.00
50867;BME280;36839;51.946;21.002;2023-04-08T00:24:04;100666.23;;;3.60;100.00
50867;BME280;36839;51.946;21.002;2023-04-08T00:26:34;100664.56;;;3.50;100.00
50867;BME280;36839;51.946;21.002;2023-04-08T00:29:02;100666.76;;;3.41;100.00
50867;BME280;36839;51.946;21.002;2023-04-08T00:31:29;100672.52;;;3.35;100.00
50867;BME280;36839;51.946;21.002;2023-04-08T00:33:57;100674.24;;;3.28;100.00
50867;BME280;36839;51.946;21.002;2023-04-08T00:36:37;100675.69;;;3.21;100.00
50867;BME280;36839;51.946;21.002;2023-04-08T00:39:06;100672.70;;;3.13;100.00
50867;BME280;36839;51.946;21.002;2023-04-08T00:41:35;100672.48;;;3.06;100.00
50867;BME280;36839;51.946;21.002;2023-04-08T00:44:15;100675.81;;;3.00;100.00
50867;BME280;36839;51.946;21.002;2023-04-08T00:46:41;100679.05;;;2.95;100.00
50867;BME280;36839;51.946;21.002;2023-04-08T00:49:12;100677.66;;;2.89;100.00
50867;BME280;36839;51.946;21.002;2023-04-08T00:51:38;100680.31;;;2.87;100.00
50867;BME280;36839;51.946;21.002;2023-04-08T00:54:07;100679.01;;;2.87;100.00
50867;BME280;36839;51.946;21.002;2023-04-08T00:56:42;100678.92;;;2.86;100.00
50867;BME280;36839;51.946;21.002;2023-04-08T00:59:09;100678.02;;;2.81;100.00
50867;BME280;36839;51.946;21.002;2023-04-08T01:07:26;100692.65;;;2.64;100.00
50867;BME280;36839;51.946;21.002;2023-04-08T01:09:56;100691.85;;;2.60;100.00
50867;BME280;36839;51.946;21.002;2023-04-08T01:12:32;100695.70;;;2.55;100.00
50867;BME280;36839;51.946;21.002;2023-04-08T01:15:07;100698.00;;;2.50;100.00
50867;BME280;36839;51.946;21.002;2023-04-08T01:17:37;100698.47;;;2.44;100.00
50867;BME280;36839;51.946;21.002;2023-04-08T01:20:05;100699.11;;;2.39;100.00
50867;BME280;36839;51.946;21.002;2023-04-08T01:22:43;100703.48;;;2.34;100.00
50867;BME280;36839;51.946;21.002;2023-04-08T01:25:16;100698.69;;;2.27;100.00
50867;BME280;36839;51.946;21.002;2023-04-08T01:27:47;100697.87;;;2.23;100.00
50867;BME280;36839;51.946;21.002;2023-04-08T01:30:18;100698.73;;;2.18;100.00
50867;BME280;36839;51.946;21.002;2023-04-08T01:32:46;100699.13;;;2.12;100.00
50867;BME280;36839;51.946;21.002;2023-04-08T01:35:14;100694.15;;;2.07;100.00
50867;BME280;36839;51.946;21.002;2023-04-08T01:37:42;100696.70;;;2.02;100.00
50867;BME280;36839;51.946;21.002;2023-04-08T01:40:11;100696.91;;;1.96;100.00
50867;BME280;36839;51.946;21.002;2023-04-08T01:42:49;100696.23;;;1.90;100.00
50867;BME280;36839;51.946;21.002;2023-04-08T01:45:17;100697.52;;;1.82;100.00
50867;BME280;36839;51.946;21.002;2023-04-08T01:47:45;100701.55;;;1.70;100.00
50867;BME280;36839;51.946;21.002;2023-04-08T01:50:14;100699.73;;;1.63;100.00
50867;BME280;36839;51.946;21.002;2023-04-08T01:52:47;100697.37;;;1.57;100.00
50867;BME280;36839;51.946;21.002;2023-04-08T01:55:27;100698.84;;;1.50;100.00
50867;BME280;36839;51.946;21.002;2023-04-08T01:57:55;100699.11;;;1.46;100.00
50867;BME280;36839;51.946;21.002;2023-04-08T02:00:27;100698.72;;;1.43;100.00
50867;BME280;36839;51.946;21.002;2023-04-08T02:02:56;100704.67;;;1.41;100.00
50867;BME280;36839;51.946;21.002;2023-04-08T02:05:23;100706.58;;;1.37;100.00
50867;BME280;36839;51.946;21.002;2023-04-08T02:07:50;100707.85;;;1.33;100.00
50867;BME280;36839;51.946;21.002;2023-04-08T02:10:17;100709.65;;;1.28;100.00
50867;BME280;36839;51.946;21.002;2023-04-08T02:12:45;100711.45;;;1.22;100.00
50867;BME280;36839;51.946;21.002;2023-04-08T02:15:12;100714.79;;;1.15;100.00
50867;BME280;36839;51.946;21.002;2023-04-08T02:17:50;100719.23;;;1.05;100.00
50867;BME280;36839;51.946;21.002;2023-04-08T02:21:07;100720.52;;;0.99;100.00
50867;BME280;36839;51.946;21.002;2023-04-08T02:23:16;100731.27;;;0.91;100.00
50867;BME280;36839;51.946;21.002;2023-04-08T02:25:47;100730.56;;;0.83;100.00
50867;BME280;36839;51.946;21.002;2023-04-08T02:28:29;100732.81;;;0.77;100.00
50867;BME280;36839;51.946;21.002;2023-04-08T02:31:00;100735.13;;;0.72;100.00
50867;BME280;36839;51.946;21.002;2023-04-08T02:33:28;100731.77;;;0.66;100.00
50867;BME280;36839;51.946;21.002;2023-04-08T02:35:56;100735.32;;;0.61;100.00
50867;BME280;36839;51.946;21.002;2023-04-08T02:38:22;100736.16;;;0.53;100.00
50867;BME280;36839;51.946;21.002;2023-04-08T02:40:52;100738.95;;;0.49;100.00
50867;BME280;36839;51.946;21.002;2023-04-08T02:43:18;100742.95;;;0.43;100.00
50867;BME280;36839;51.946;21.002;2023-04-08T02:45:46;100739.23;;;0.37;100.00
50867;BME280;36839;51.946;21.002;2023-04-08T02:48:13;100743.89;;;0.31;100.00
50867;BME280;36839;51.946;21.002;2023-04-08T02:50:41;100745.35;;;0.28;100.00
50867;BME280;36839;51.946;21.002;2023-04-08T02:53:09;100752.09;;;0.26;100.00
50867;BME280;36839;51.946;21.002;2023-04-08T02:55:38;100752.18;;;0.23;100.00
50867;BME280;36839;51.946;21.002;2023-04-08T02:58:05;100755.56;;;0.19;100.00
50867;BME280;36839;51.946;21.002;2023-04-08T03:00:32;100758.93;;;0.15;100.00
50867;BME280;36839;51.946;21.002;2023-04-08T03:02:59;100758.59;;;0.10;100.00
50867;BME280;36839;51.946;21.002;2023-04-08T03:05:30;100757.42;;;0.05;100.00
50867;BME280;36839;51.946;21.002;2023-04-08T03:07:57;100764.01;;;0.00;100.00
50867;BME280;36839;51.946;21.002;2023-04-08T03:10:25;100765.42;;;-0.07;100.00
50867;BME280;36839;51.946;21.002;2023-04-08T03:12:52;100766.45;;;-0.14;100.00
50867;BME280;36839;51.946;21.002;2023-04-08T03:15:20;100763.98;;;-0.20;100.00
50867;BME280;36839;51.946;21.002;2023-04-08T03:17:47;100771.73;;;-0.23;100.00
50867;BME280;36839;51.946;21.002;2023-04-08T03:20:14;100771.22;;;-0.24;100.00
50867;BME280;36839;51.946;21.002;2023-04-08T03:22:41;100773.45;;;-0.26;100.00
50867;BME280;36839;51.946;21.002;2023-04-08T03:25:08;100775.05;;;-0.31;100.00
50867;BME280;36839;51.946;21.002;2023-04-08T03:27:37;100775.91;;;-0.35;100.00
50867;BME280;36839;51.946;21.002;2023-04-08T03:30:05;100778.08;;;-0.38;100.00
50867;BME280;36839;51.946;21.002;2023-04-08T03:32:31;100784.58;;;-0.41;100.00
50867;BME280;36839;51.946;21.002;2023-04-08T03:34:58;100787.73;;;-0.41;100.00
50867;BME280;36839;51.946;21.002;2023-04-08T03:37:29;100791.00;;;-0.42;100.00
50867;BME280;36839;51.946;21.002;2023-04-08T03:39:56;100789.28;;;-0.42;100.00
50867;BME280;36839;51.946;21.002;2023-04-08T03:42:23;100783.84;;;-0.43;100.00
50867;BME280;36839;51.946;21.002;2023-04-08T03:45:04;100788.75;;;-0.45;100.00
50867;BME280;36839;51.946;21.002;2023-04-08T03:47:35;100785.39;;;-0.46;100.00
50867;BME280;36839;51.946;21.002;2023-04-08T03:50:04;100791.39;;;-0.48;100.00
50867;BME280;36839;51.946;21.002;2023-04-08T03:52:38;100796.90;;;-0.47;100.00
50867;BME280;36839;51.946;21.002;2023-04-08T03:55:06;100791.11;;;-0.45;100.00
50867;BME280;36839;51.946;21.002;2023-04-08T03:57:32;100797.53;;;-0.43;100.00
50867;BME280;36839;51.946;21.002;2023-04-08T03:59:59;100797.92;;;-0.42;100.00
50867;BME280;36839;51.946;21.002;2023-04-08T04:02:26;100798.73;;;-0.44;100.00
50867;BME280;36839;51.946;21.002;2023-04-08T04:04:53;100801.48;;;-0.49;100.00
50867;BME280;36839;51.946;21.002;2023-04-08T04:07:19;100803.15;;;-0.52;100.00
50867;BME280;36839;51.946;21.002;2023-04-08T04:09:45;100804.14;;;-0.53;100.00
50867;BME280;36839;51.946;21.002;2023-04-08T04:12:12;100806.23;;;-0.52;100.00
50867;BME280;36839;51.946;21.002;2023-04-08T04:14:39;100813.13;;;-0.52;100.00
50867;BME280;36839;51.946;21.002;2023-04-08T04:17:08;100817.84;;;-0.52;100.00
50867;BME280;36839;51.946;21.002;2023-04-08T04:19:34;100818.29;;;-0.53;100.00
50867;BME280;36839;51.946;21.002;2023-04-08T04:22:03;100821.54;;;-0.56;100.00
50867;BME280;36839;51.946;21.002;2023-04-08T04:24:32;100820.01;;;-0.57;100.00
50867;BME280;36839;51.946;21.002;2023-04-08T04:26:59;100826.31;;;-0.57;100.00
50867;BME280;36839;51.946;21.002;2023-04-08T04:29:26;100828.31;;;-0.55;100.00
50867;BME280;36839;51.946;21.002;2023-04-08T04:31:54;100828.95;;;-0.52;100.00
50867;BME280;36839;51.946;21.002;2023-04-08T04:34:20;100832.34;;;-0.47;100.00
50867;BME280;36839;51.946;21.002;2023-04-08T04:36:46;100837.77;;;-0.42;100.00
50867;BME280;36839;51.946;21.002;2023-04-08T04:39:13;100842.13;;;-0.38;100.00
50867;BME280;36839;51.946;21.002;2023-04-08T04:41:39;100841.73;;;-0.33;100.00
50867;BME280;36839;51.946;21.002;2023-04-08T04:44:09;100843.27;;;-0.30;100.00
50867;BME280;36839;51.946;21.002;2023-04-08T04:46:35;100850.41;;;-0.24;100.00
50867;BME280;36839;51.946;21.002;2023-04-08T04:49:04;100848.52;;;-0.16;100.00
50867;BME280;36839;51.946;21.002;2023-04-08T04:51:32;100852.35;;;-0.06;100.00
50867;BME280;36839;51.946;21.002;2023-04-08T04:53:58;100853.26;;;0.04;100.00
50867;BME280;36839;51.946;21.002;2023-04-08T04:56:25;100854.62;;;0.11;100.00
50867;BME280;36839;51.946;21.002;2023-04-08T04:58:54;100858.81;;;0.18;100.00
50867;BME280;36839;51.946;21.002;2023-04-08T05:01:22;100862.90;;;0.26;100.00
50867;BME280;36839;51.946;21.002;2023-04-08T05:03:49;100861.86;;;0.33;100.00
50867;BME280;36839;51.946;21.002;2023-04-08T05:06:16;100862.42;;;0.41;100.00
50867;BME280;36839;51.946;21.002;2023-04-08T05:08:42;100863.67;;;0.49;100.00
50867;BME280;36839;51.946;21.002;2023-04-08T05:11:09;100865.43;;;0.59;100.00
50867;BME280;36839;51.946;21.002;2023-04-08T05:13:38;100867.26;;;0.68;100.00
50867;BME280;36839;51.946;21.002;2023-04-08T05:16:17;100867.50;;;0.77;100.00
50867;BME280;36839;51.946;21.002;2023-04-08T05:18:43;100867.55;;;0.85;100.00
50867;BME280;36839;51.946;21.002;2023-04-08T05:21:11;100872.52;;;0.95;100.00
50867;BME280;36839;51.946;21.002;2023-04-08T05:23:39;100877.08;;;1.05;100.00
50867;BME280;36839;51.946;21.002;2023-04-08T05:26:09;100874.91;;;1.13;100.00
50867;BME280;36839;51.946;21.002;2023-04-08T05:28:37;100879.52;;;1.23;100.00
50867;BME280;36839;51.946;21.002;2023-04-08T05:31:05;100881.70;;;1.31;100.00
50867;BME280;36839;51.946;21.002;2023-04-08T05:33:33;100879.29;;;1.40;100.00
50867;BME280;36839;51.946;21.002;2023-04-08T05:36:00;100876.14;;;1.48;100.00
50867;BME280;36839;51.946;21.002;2023-04-08T05:38:30;100883.77;;;1.58;100.00
50867;BME280;36839;51.946;21.002;2023-04-08T05:40:56;100883.39;;;1.67;100.00
50867;BME280;36839;51.946;21.002;2023-04-08T05:43:23;100889.21;;;1.76;100.00
50867;BME280;36839;51.946;21.002;2023-04-08T05:45:51;100887.73;;;1.86;100.00
50867;BME280;36839;51.946;21.002;2023-04-08T05:48:17;100889.13;;;1.97;100.00
50867;BME280;36839;51.946;21.002;2023-04-08T05:50:44;100889.23;;;2.07;100.00
50867;BME280;36839;51.946;21.002;2023-04-08T05:53:11;100889.33;;;2.19;100.00
50867;BME280;36839;51.946;21.002;2023-04-08T05:55:38;100890.52;;;2.29;100.00
50867;BME280;36839;51.946;21.002;2023-04-08T05:58:05;100896.86;;;2.42;100.00
50867;BME280;36839;51.946;21.002;2023-04-08T06:00:33;100897.88;;;2.52;100.00
50867;BME280;36839;51.946;21.002;2023-04-08T06:03:04;100897.14;;;2.63;100.00
50867;BME280;36839;51.946;21.002;2023-04-08T06:05:34;100897.66;;;2.76;100.00
50867;BME280;36839;51.946;21.002;2023-04-08T06:08:00;100901.16;;;2.86;100.00
50867;BME280;36839;51.946;21.002;2023-04-08T06:10:29;100903.10;;;2.98;100.00
50867;BME280;36839;51.946;21.002;2023-04-08T06:13:11;100903.98;;;3.09;100.00
50867;BME280;36839;51.946;21.002;2023-04-08T06:15:38;100902.96;;;3.21;100.00
50867;BME280;36839;51.946;21.002;2023-04-08T06:18:04;100905.46;;;3.29;100.00
50867;BME280;36839;51.946;21.002;2023-04-08T06:20:31;100903.90;;;3.39;100.00
50867;BME280;36839;51.946;21.002;2023-04-08T06:23:12;100905.59;;;3.49;100.00
50867;BME280;36839;51.946;21.002;2023-04-08T06:25:38;100898.72;;;3.61;100.00
50867;BME280;36839;51.946;21.002;2023-04-08T06:28:06;100898.61;;;3.73;100.00
50867;BME280;36839;51.946;21.002;2023-04-08T06:30:34;100902.52;;;3.84;100.00
50867;BME280;36839;51.946;21.002;2023-04-08T06:33:04;100902.48;;;3.95;100.00
50867;BME280;36839;51.946;21.002;2023-04-08T06:35:30;100899.92;;;4.04;100.00
50867;BME280;36839;51.946;21.002;2023-04-08T06:37:59;100900.16;;;4.14;100.00
50867;BME280;36839;51.946;21.002;2023-04-08T06:40:29;100896.58;;;4.24;100.00
50867;BME280;36839;51.946;21.002;2023-04-08T06:42:57;100899.84;;;4.32;100.00
50867;BME280;36839;51.946;21.002;2023-04-08T06:45:25;100904.20;;;4.44;100.00
50867;BME280;36839;51.946;21.002;2023-04-08T06:47:52;100905.17;;;4.57;100.00
50867;BME280;36839;51.946;21.002;2023-04-08T06:50:21;100902.67;;;4.67;100.00
50867;BME280;36839;51.946;21.002;2023-04-08T06:52:48;100903.45;;;4.76;100.00
50867;BME280;36839;51.946;21.002;2023-04-08T06:55:15;100902.11;;;4.84;100.00
50867;BME280;36839;51.946;21.002;2023-04-08T06:57:47;100902.72;;;4.92;100.00
50867;BME280;36839;51.946;21.002;2023-04-08T07:00:14;100902.77;;;5.01;100.00
50867;BME280;36839;51.946;21.002;2023-04-08T07:02:49;100906.05;;;5.11;100.00
50867;BME280;36839;51.946;21.002;2023-04-08T07:05:16;100911.97;;;5.22;100.00
50867;BME280;36839;51.946;21.002;2023-04-08T07:07:45;100908.98;;;5.32;100.00
50867;BME280;36839;51.946;21.002;2023-04-08T07:10:16;100910.30;;;5.43;100.00
50867;BME280;36839;51.946;21.002;2023-04-08T07:12:43;100911.92;;;5.54;100.00
50867;BME280;36839;51.946;21.002;2023-04-08T07:15:10;100912.11;;;5.64;100.00
50867;BME280;36839;51.946;21.002;2023-04-08T07:17:36;100910.84;;;5.77;100.00
50867;BME280;36839;51.946;21.002;2023-04-08T07:20:07;100913.00;;;5.87;100.00
50867;BME280;36839;51.946;21.002;2023-04-08T07:22:35;100916.08;;;5.96;100.00
50867;BME280;36839;51.946;21.002;2023-04-08T07:25:04;100918.05;;;6.08;100.00
50867;BME280;36839;51.946;21.002;2023-04-08T07:27:34;100921.34;;;6.18;100.00
50867;BME280;36839;51.946;21.002;2023-04-08T07:30:02;100923.32;;;6.28;100.00
50867;BME280;36839;51.946;21.002;2023-04-08T07:32:28;100926.11;;;6.41;100.00
50867;BME280;36839;51.946;21.002;2023-04-08T07:34:59;100921.77;;;6.48;100.00
50867;BME280;36839;51.946;21.002;2023-04-08T07:37:28;100922.02;;;6.53;100.00
50867;BME280;36839;51.946;21.002;2023-04-08T07:39:56;100919.98;;;6.58;100.00
50867;BME280;36839;51.946;21.002;2023-04-08T07:42:23;100920.36;;;6.62;100.00
50867;BME280;36839;51.946;21.002;2023-04-08T07:44:49;100919.52;;;6.67;100.00
50867;BME280;36839;51.946;21.002;2023-04-08T07:47:17;100922.27;;;6.74;100.00
50867;BME280;36839;51.946;21.002;2023-04-08T07:49:46;100923.02;;;6.85;100.00
50867;BME280;36839;51.946;21.002;2023-04-08T07:52:13;100926.50;;;6.99;100.00
50867;BME280;36839;51.946;21.002;2023-04-08T07:54:39;100925.11;;;7.08;100.00
50867;BME280;36839;51.946;21.002;2023-04-08T07:57:07;100920.80;;;7.14;100.00
50867;BME280;36839;51.946;21.002;2023-04-08T07:59:34;100919.39;;;7.17;100.00
50867;BME280;36839;51.946;21.002;2023-04-08T08:02:02;100919.87;;;7.28;100.00
50867;BME280;36839;51.946;21.002;2023-04-08T08:04:32;100920.26;;;7.38;100.00
50867;BME280;36839;51.946;21.002;2023-04-08T08:06:58;100923.26;;;7.53;100.00
50867;BME280;36839;51.946;21.002;2023-04-08T08:09:30;100924.91;;;7.59;100.00
50867;BME280;36839;51.946;21.002;2023-04-08T08:12:00;100925.91;;;7.74;100.00
50867;BME280;36839;51.946;21.002;2023-04-08T08:14:31;100923.82;;;7.86;100.00
50867;BME280;36839;51.946;21.002;2023-04-08T08:16:57;100922.72;;;7.99;100.00
50867;BME280;36839;51.946;21.002;2023-04-08T08:19:24;100918.18;;;8.00;100.00
50867;BME280;36839;51.946;21.002;2023-04-08T08:21:51;100920.73;;;8.04;100.00
50867;BME280;36839;51.946;21.002;2023-04-08T08:24:17;100915.84;;;8.03;100.00
50867;BME280;36839;51.946;21.002;2023-04-08T08:26:47;100910.45;;;8.10;100.00
50867;BME280;36839;51.946;21.002;2023-04-08T08:29:16;100910.91;;;8.22;100.00
50867;BME280;36839;51.946;21.002;2023-04-08T08:31:42;100916.06;;;8.34;100.00
50867;BME280;36839;51.946;21.002;2023-04-08T08:34:11;100912.10;;;8.43;100.00
50867;BME280;36839;51.946;21.002;2023-04-08T08:36:40;100906.67;;;8.51;100.00
50867;BME280;36839;51.946;21.002;2023-04-08T08:39:09;100908.54;;;8.62;100.00
50867;BME280;36839;51.946;21.002;2023-04-08T08:41:38;100908.77;;;8.72;100.00
50867;BME280;36839;51.946;21.002;2023-04-08T08:44:08;100909.45;;;8.81;100.00
50867;BME280;36839;51.946;21.002;2023-04-08T08:46:35;100908.70;;;8.90;100.00
50867;BME280;36839;51.946;21.002;2023-04-08T08:49:04;100910.20;;;8.96;100.00
50867;BME280;36839;51.946;21.002;2023-04-08T08:51:33;100912.40;;;9.03;100.00
50867;BME280;36839;51.946;21.002;2023-04-08T08:54:02;100914.36;;;9.15;100.00
50867;BME280;36839;51.946;21.002;2023-04-08T08:56:32;100913.02;;;9.33;100.00
50867;BME280;36839;51.946;21.002;2023-04-08T08:59:00;100912.84;;;9.43;100.00
50867;BME280;36839;51.946;21.002;2023-04-08T09:01:30;100914.45;;;9.50;100.00
50867;BME280;36839;51.946;21.002;2023-04-08T09:04:27;100912.85;;;9.58;100.00
50867;BME280;36839;51.946;21.002;2023-04-08T09:07:09;100913.54;;;9.71;100.00
50867;BME280;36839;51.946;21.002;2023-04-08T09:09:48;100916.19;;;9.84;100.00
50867;BME280;36839;51.946;21.002;2023-04-08T09:12:17;100921.52;;;9.83;100.00
50867;BME280;36839;51.946;21.002;2023-04-08T09:14:44;100922.62;;;9.77;100.00
50867;BME280;36839;51.946;21.002;2023-04-08T09:17:12;100920.54;;;9.80;100.00
50867;BME280;36839;51.946;21.002;2023-04-08T09:20:10;100925.26;;;9.85;100.00
50867;BME280;36839;51.946;21.002;2023-04-08T09:25:40;100924.02;;;10.02;100.00
50867;BME280;36839;51.946;21.002;2023-04-08T09:28:18;100923.43;;;10.03;100.00
50867;BME280;36839;51.946;21.002;2023-04-08T09:30:48;100923.81;;;10.10;100.00
50867;BME280;36839;51.946;21.002;2023-04-08T09:33:16;100925.58;;;10.14;100.00
50867;BME280;36839;51.946;21.002;2023-04-08T09:35:43;100927.77;;;10.20;100.00
50867;BME280;36839;51.946;21.002;2023-04-08T09:38:11;100927.11;;;10.26;100.00
50867;BME280;36839;51.946;21.002;2023-04-08T09:40:43;100926.21;;;10.23;99.92
50867;BME280;36839;51.946;21.002;2023-04-08T09:43:15;100924.27;;;10.16;99.93
50867;BME280;36839;51.946;21.002;2023-04-08T09:45:46;100923.24;;;10.30;100.00
50867;BME280;36839;51.946;21.002;2023-04-08T09:48:17;100923.92;;;10.59;100.00
50867;BME280;36839;51.946;21.002;2023-04-08T09:50:50;100915.60;;;10.80;100.00
50867;BME280;36839;51.946;21.002;2023-04-08T09:53:29;100922.05;;;10.94;100.00
50867;BME280;36839;51.946;21.002;2023-04-08T09:56:05;100920.30;;;11.04;100.00
50867;BME280;36839;51.946;21.002;2023-04-08T09:59:01;100927.41;;;11.10;99.68
50867;BME280;36839;51.946;21.002;2023-04-08T10:01:48;100926.32;;;11.17;98.90
50867;BME280;36839;51.946;21.002;2023-04-08T10:04:25;100923.21;;;11.08;95.71
50867;BME280;36839;51.946;21.002;2023-04-08T10:07:03;100917.91;;;11.12;97.22
50867;BME280;36839;51.946;21.002;2023-04-08T10:09:33;100920.09;;;11.09;97.08
50867;BME280;36839;51.946;21.002;2023-04-08T10:12:04;100916.17;;;11.09;95.08
50867;BME280;36839;51.946;21.002;2023-04-08T10:14:32;100911.64;;;11.23;96.00
50867;BME280;36839;51.946;21.002;2023-04-08T10:17:28;100907.66;;;11.37;95.05
50867;BME280;36839;51.946;21.002;2023-04-08T10:19:58;100911.55;;;11.53;97.04
50867;BME280;36839;51.946;21.002;2023-04-08T10:27:44;100904.30;;;11.65;87.73
50867;BME280;36839;51.946;21.002;2023-04-08T10:33:18;100897.84;;;11.84;87.91
50867;BME280;36839;51.946;21.002;2023-04-08T10:35:52;100900.23;;;11.96;87.91
50867;BME280;36839;51.946;21.002;2023-04-08T10:38:19;100899.42;;;12.05;85.26
50867;BME280;36839;51.946;21.002;2023-04-08T10:40:47;100896.63;;;12.04;83.15
50867;BME280;36839;51.946;21.002;2023-04-08T10:43:14;100896.80;;;11.97;80.91
50867;BME280;36839;51.946;21.002;2023-04-08T10:45:44;100892.08;;;12.02;82.24
50867;BME280;36839;51.946;21.002;2023-04-08T10:48:20;100890.30;;;12.13;83.15
50867;BME280;36839;51.946;21.002;2023-04-08T10:51:01;100883.17;;;12.22;82.52
50867;BME280;36839;51.946;21.002;2023-04-08T10:53:37;100881.21;;;12.36;82.97
50867;BME280;36839;51.946;21.002;2023-04-08T10:56:12;100881.98;;;12.27;77.99
50867;BME280;36839;51.946;21.002;2023-04-08T10:58:52;100881.56;;;12.23;75.47
50867;BME280;36839;51.946;21.002;2023-04-08T11:01:22;100880.52;;;12.32;77.10
50867;BME280;36839;51.946;21.002;2023-04-08T11:03:48;100878.08;;;12.32;75.30
50867;BME280;36839;51.946;21.002;2023-04-08T11:06:15;100878.23;;;12.38;74.80
50867;BME280;36839;51.946;21.002;2023-04-08T11:08:45;100876.65;;;12.50;77.02
50867;BME280;36839;51.946;21.002;2023-04-08T11:11:18;100878.98;;;12.66;75.67
50867;BME280;36839;51.946;21.002;2023-04-08T11:13:48;100874.92;;;12.66;71.34
50867;BME280;36839;51.946;21.002;2023-04-08T11:16:27;100870.35;;;12.78;76.34
50867;BME280;36839;51.946;21.002;2023-04-08T11:18:56;100877.60;;;12.99;76.74
50867;BME280;36839;51.946;21.002;2023-04-08T11:21:26;100876.55;;;13.02;72.24
50867;BME280;36839;51.946;21.002;2023-04-08T11:23:56;100873.98;;;12.86;68.46
50867;BME280;36839;51.946;21.002;2023-04-08T11:26:24;100877.65;;;12.87;69.27
50867;BME280;36839;51.946;21.002;2023-04-08T11:28:56;100874.15;;;12.86;69.32
50867;BME280;36839;51.946;21.002;2023-04-08T11:31:29;100873.25;;;12.95;70.24
50867;BME280;36839;51.946;21.002;2023-04-08T11:33:56;100874.36;;;13.20;71.59
50867;BME280;36839;51.946;21.002;2023-04-08T11:36:24;100874.15;;;13.32;66.67
50867;BME280;36839;51.946;21.002;2023-04-08T11:38:54;100870.82;;;13.49;68.25
50867;BME280;36839;51.946;21.002;2023-04-08T11:41:24;100865.83;;;13.34;65.27
50867;BME280;36839;51.946;21.002;2023-04-08T11:43:55;100866.16;;;13.09;64.29
50867;BME280;36839;51.946;21.002;2023-04-08T11:46:23;100864.21;;;13.18;65.58
50867;BME280;36839;51.946;21.002;2023-04-08T11:49:05;100862.55;;;13.33;66.30
50867;BME280;36839;51.946;21.002;2023-04-08T11:51:33;100858.44;;;13.53;65.14
50867;BME280;36839;51.946;21.002;2023-04-08T11:54:04;100850.91;;;13.69;65.15
50867;BME280;36839;51.946;21.002;2023-04-08T11:56:45;100849.89;;;13.85;64.39
50867;BME280;36839;51.946;21.002;2023-04-08T11:59:49;100853.21;;;14.07;65.61
50867;BME280;36839;51.946;21.002;2023-04-08T12:02:25;100852.77;;;14.19;62.51
50867;BME280;36839;51.946;21.002;2023-04-08T12:04:54;100849.46;;;14.34;62.40
50867;BME280;36839;51.946;21.002;2023-04-08T12:07:29;100851.20;;;14.45;62.81
50867;BME280;36839;51.946;21.002;2023-04-08T12:09:57;100851.52;;;14.54;62.32
50867;BME280;36839;51.946;21.002;2023-04-08T12:12:25;100854.14;;;14.52;60.86
50867;BME280;36839;51.946;21.002;2023-04-08T12:14:52;100847.41;;;14.50;59.63
50867;BME280;36839;51.946;21.002;2023-04-08T12:17:18;100850.97;;;14.40;58.44
50867;BME280;36839;51.946;21.002;2023-04-08T12:19:47;100846.96;;;14.43;57.11
50867;BME280;36839;51.946;21.002;2023-04-08T12:22:17;100847.98;;;14.51;57.82
50867;BME280;36839;51.946;21.002;2023-04-08T12:24:43;100841.50;;;14.61;57.85
50867;BME280;36839;51.946;21.002;2023-04-08T12:27:09;100841.15;;;14.64;57.13
50867;BME280;36839;51.946;21.002;2023-04-08T12:29:36;100838.59;;;14.71;57.04
50867;BME280;36839;51.946;21.002;2023-04-08T12:32:05;100837.40;;;14.90;56.90
50867;BME280;36839;51.946;21.002;2023-04-08T12:34:32;100830.41;;;14.87;53.49
50867;BME280;36839;51.946;21.002;2023-04-08T12:36:59;100826.43;;;14.78;54.52
50867;BME280;36839;51.946;21.002;2023-04-08T12:39:27;100825.90;;;14.87;56.26
50867;BME280;36839;51.946;21.002;2023-04-08T12:41:54;100828.04;;;15.05;54.66
50867;BME280;36839;51.946;21.002;2023-04-08T12:44:23;100821.89;;;15.13;52.22
50867;BME280;36839;51.946;21.002;2023-04-08T12:46:50;100825.27;;;15.26;52.79
50867;BME280;36839;51.946;21.002;2023-04-08T12:49:18;100825.11;;;15.41;52.27
50867;BME280;36839;51.946;21.002;2023-04-08T12:51:45;100823.84;;;15.51;52.00
50867;BME280;36839;51.946;21.002;2023-04-08T12:54:22;100821.55;;;15.59;50.95
50867;BME280;36839;51.946;21.002;2023-04-08T12:56:51;100818.03;;;15.53;48.79
50867;BME280;36839;51.946;21.002;2023-04-08T12:59:18;100813.10;;;15.69;49.79
50867;BME280;36839;51.946;21.002;2023-04-08T13:01:45;100810.48;;;15.89;51.73
50867;BME280;36839;51.946;21.002;2023-04-08T13:04:12;100805.54;;;16.08;51.00
50867;BME280;36839;51.946;21.002;2023-04-08T13:06:39;100807.75;;;16.32;52.19
50867;BME280;36839;51.946;21.002;2023-04-08T13:09:05;100805.73;;;16.32;51.40